桃園國際機場 - 塔臺(二站)

SPECI RCTP 011537Z 05021G33KT 9999 FEW006 BKN008 BKN018 18/17 Q1020 WS R05L NOSIG RMK A3014=

站台狀態:Offline
最後更新:2022-12-01 23:30:02